createdAt,value
2023-08-29T00:01:48.610Z,13.48
2023-08-29T00:04:09.649Z,13.64
2023-08-29T00:06:30.447Z,13.63
2023-08-29T00:08:50.832Z,13.40
2023-08-29T00:11:11.312Z,13.19
2023-08-29T00:13:31.815Z,13.18
2023-08-29T00:15:53.212Z,13.47
2023-08-29T00:18:13.639Z,13.34
2023-08-29T00:20:34.017Z,13.35
2023-08-29T00:22:54.526Z,13.12
2023-08-29T00:25:14.941Z,13.15
2023-08-29T00:27:35.393Z,13.49
2023-08-29T00:29:55.789Z,13.54
2023-08-29T00:32:16.474Z,13.69
2023-08-29T00:34:36.896Z,13.20
2023-08-29T00:36:57.641Z,13.19
2023-08-29T00:39:18.126Z,13.41
2023-08-29T00:41:38.643Z,12.90
2023-08-29T00:43:59.482Z,13.52
2023-08-29T00:46:21.258Z,13.48
2023-08-29T00:48:43.034Z,13.29
2023-08-29T00:51:03.963Z,13.17
2023-08-29T00:53:26.370Z,13.27
2023-08-29T00:55:47.416Z,13.56
2023-08-29T00:58:08.096Z,13.70
2023-08-29T01:00:29.741Z,13.44
2023-08-29T01:02:50.666Z,13.47
2023-08-29T01:05:11.242Z,13.20
2023-08-29T01:07:31.825Z,13.61
2023-08-29T01:09:52.596Z,13.93
2023-08-29T01:12:17.332Z,13.50
2023-08-29T01:15:00.721Z,13.41
2023-08-29T01:17:30.236Z,13.55
2023-08-29T01:19:53.341Z,13.61
2023-08-29T01:22:30.620Z,13.95
2023-08-29T01:24:59.717Z,13.55
2023-08-29T01:27:21.033Z,14.31
2023-08-29T01:29:42.482Z,13.75
2023-08-29T01:32:04.409Z,14.17
2023-08-29T01:34:25.172Z,14.80
2023-08-29T01:36:45.696Z,14.87
2023-08-29T01:39:06.321Z,14.80
2023-08-29T01:41:27.080Z,14.58
2023-08-29T01:43:47.993Z,14.05
2023-08-29T01:46:08.600Z,13.72
2023-08-29T01:48:29.614Z,13.70
2023-08-29T01:50:50.669Z,13.53
2023-08-29T01:53:11.766Z,14.00
2023-08-29T01:55:34.156Z,14.47
2023-08-29T01:57:55.675Z,13.72
2023-08-29T02:00:17.385Z,13.98
2023-08-29T02:02:39.698Z,13.95
2023-08-29T02:05:00.485Z,13.69
2023-08-29T02:07:20.844Z,13.95
2023-08-29T02:09:41.249Z,14.44
2023-08-29T02:12:01.813Z,13.91
2023-08-29T02:14:22.342Z,13.88
2023-08-29T02:16:42.688Z,13.90
2023-08-29T02:19:03.782Z,14.59
2023-08-29T02:21:24.396Z,14.59
2023-08-29T02:23:45.378Z,14.48
2023-08-29T02:26:06.775Z,14.91
2023-08-29T02:28:27.233Z,14.33
2023-08-29T02:30:47.827Z,14.95
2023-08-29T02:33:08.455Z,14.95
2023-08-29T02:35:29.057Z,15.05
2023-08-29T02:37:50.347Z,15.03
2023-08-29T02:40:11.463Z,15.29
2023-08-29T02:42:32.354Z,15.03
2023-08-29T02:44:52.905Z,14.43
2023-08-29T02:47:13.491Z,14.53
2023-08-29T02:49:34.711Z,14.66
2023-08-29T02:51:55.290Z,14.00
2023-08-29T02:54:15.924Z,13.33
2023-08-29T02:56:36.859Z,13.26
2023-08-29T02:58:57.731Z,13.17
2023-08-29T03:01:18.285Z,13.23
2023-08-29T03:03:39.152Z,12.87
2023-08-29T03:06:00.641Z,13.53
2023-08-29T03:08:21.111Z,13.29
2023-08-29T03:10:42.003Z,13.18
2023-08-29T03:13:02.474Z,13.98
2023-08-29T03:15:23.274Z,13.03
2023-08-29T03:17:45.046Z,12.90
2023-08-29T03:20:06.672Z,12.83
2023-08-29T03:22:27.658Z,12.70
2023-08-29T03:24:48.677Z,12.92
2023-08-29T03:27:09.464Z,12.90
2023-08-29T03:29:29.985Z,13.03
2023-08-29T03:31:50.447Z,13.55
2023-08-29T03:34:11.034Z,13.71
2023-08-29T03:36:31.633Z,14.08
2023-08-29T03:38:52.029Z,13.72
2023-08-29T03:41:12.617Z,14.25
2023-08-29T03:43:35.280Z,14.52
2023-08-29T03:46:00.089Z,14.70
2023-08-29T03:48:28.944Z,13.93
2023-08-29T03:50:50.780Z,14.16
2023-08-29T03:53:11.441Z,13.76
2023-08-29T03:55:32.061Z,13.48
2023-08-29T03:57:52.718Z,13.63
2023-08-29T04:00:14.845Z,13.96
2023-08-29T04:02:35.416Z,13.59
2023-08-29T04:05:12.080Z,13.55
2023-08-29T04:07:32.964Z,13.82
2023-08-29T04:09:53.498Z,13.74
2023-08-29T04:12:14.108Z,14.16
2023-08-29T04:14:36.267Z,14.43
2023-08-29T04:16:57.019Z,14.17
2023-08-29T04:19:17.999Z,13.79
2023-08-29T04:21:38.434Z,13.79
2023-08-29T04:23:59.292Z,14.00
2023-08-29T04:26:20.061Z,13.94
2023-08-29T04:28:40.588Z,13.96
2023-08-29T04:31:11.085Z,13.91
2023-08-29T04:33:31.799Z,14.08
2023-08-29T04:35:53.449Z,14.19
2023-08-29T04:38:13.925Z,14.06
2023-08-29T04:40:36.721Z,13.99
2023-08-29T04:42:57.628Z,13.91
2023-08-29T04:45:18.017Z,14.28
2023-08-29T04:47:39.622Z,14.08
2023-08-29T04:50:01.698Z,14.45
2023-08-29T04:52:22.411Z,14.32
2023-08-29T04:54:43.195Z,13.87
2023-08-29T04:57:05.264Z,14.20
2023-08-29T04:59:25.739Z,13.95
2023-08-29T05:01:47.714Z,14.42
2023-08-29T05:04:10.587Z,14.69
2023-08-29T05:06:31.280Z,14.17
2023-08-29T05:08:51.869Z,14.51
2023-08-29T05:11:12.706Z,14.26
2023-08-29T05:13:33.458Z,14.36
2023-08-29T05:15:54.166Z,14.34
2023-08-29T05:18:14.779Z,14.15
2023-08-29T05:20:35.134Z,14.26
2023-08-29T05:22:55.833Z,14.28
2023-08-29T05:25:16.461Z,14.66
2023-08-29T05:27:37.207Z,14.23
2023-08-29T05:29:57.774Z,14.56
2023-08-29T05:32:18.208Z,14.31
2023-08-29T05:34:38.724Z,14.58
2023-08-29T05:36:59.506Z,13.91
2023-08-29T05:39:21.067Z,14.27
2023-08-29T05:41:41.652Z,14.43
2023-08-29T05:44:04.537Z,14.31
2023-08-29T05:46:25.470Z,14.36
2023-08-29T05:48:45.900Z,14.75
2023-08-29T05:51:06.403Z,14.29
2023-08-29T05:53:27.073Z,13.88
2023-08-29T05:55:48.421Z,14.05
2023-08-29T05:58:09.201Z,13.93
2023-08-29T06:00:31.047Z,14.11
2023-08-29T06:02:53.660Z,14.24
2023-08-29T06:05:14.896Z,14.26
2023-08-29T06:07:35.677Z,14.20
2023-08-29T06:09:56.872Z,13.88
2023-08-29T06:12:17.996Z,13.89
2023-08-29T06:14:38.902Z,14.75
2023-08-29T06:16:59.743Z,14.34
2023-08-29T06:19:20.597Z,14.17
2023-08-29T06:21:41.539Z,13.67
2023-08-29T06:24:02.423Z,13.93
2023-08-29T06:26:23.065Z,14.00
2023-08-29T06:28:44.079Z,14.40
2023-08-29T06:31:08.469Z,14.35
2023-08-29T06:33:29.525Z,14.47
2023-08-29T06:35:50.346Z,14.77
2023-08-29T06:38:11.009Z,14.78
2023-08-29T06:40:31.465Z,14.73
2023-08-29T06:42:51.950Z,14.58
2023-08-29T06:45:12.359Z,14.56
2023-08-29T06:47:33.732Z,14.90
2023-08-29T06:49:56.001Z,14.77
2023-08-29T06:52:16.584Z,14.83
2023-08-29T06:54:37.370Z,14.09
2023-08-29T06:56:58.046Z,14.45
2023-08-29T06:59:18.520Z,14.10
2023-08-29T07:01:38.996Z,14.35
2023-08-29T07:03:59.639Z,14.21
2023-08-29T07:06:20.398Z,14.05
2023-08-29T07:08:41.904Z,14.20
2023-08-29T07:11:02.708Z,14.73
2023-08-29T07:13:23.607Z,14.40
2023-08-29T07:15:44.141Z,14.64
2023-08-29T07:18:07.070Z,14.71
2023-08-29T07:20:28.276Z,15.00
2023-08-29T07:22:49.294Z,14.06
2023-08-29T07:25:12.206Z,14.41
2023-08-29T07:27:32.792Z,15.10
2023-08-29T07:29:53.527Z,15.08
2023-08-29T07:32:14.026Z,15.04
2023-08-29T07:34:35.248Z,15.47
2023-08-29T07:36:56.003Z,14.56
2023-08-29T07:39:20.071Z,14.87
2023-08-29T07:41:40.894Z,14.43
2023-08-29T07:44:01.331Z,13.93
2023-08-29T07:46:21.912Z,14.01
2023-08-29T07:48:42.729Z,14.23
2023-08-29T07:51:04.815Z,14.47
2023-08-29T07:53:25.574Z,14.16
2023-08-29T07:55:46.372Z,14.34
2023-08-29T07:58:07.457Z,14.49
2023-08-29T08:00:29.462Z,14.17
2023-08-29T08:02:49.917Z,14.83
2023-08-29T08:05:13.169Z,14.99
2023-08-29T08:07:33.677Z,14.46
2023-08-29T08:09:54.309Z,14.62
2023-08-29T08:12:14.823Z,14.46
2023-08-29T08:14:35.329Z,14.05
2023-08-29T08:16:55.975Z,14.40
2023-08-29T08:19:16.483Z,14.40
2023-08-29T08:21:37.014Z,14.07
2023-08-29T08:23:57.542Z,14.44
2023-08-29T08:26:18.109Z,14.20
2023-08-29T08:28:38.666Z,14.85
2023-08-29T08:30:59.282Z,14.61
2023-08-29T08:33:20.207Z,14.64
2023-08-29T08:35:55.458Z,14.50
2023-08-29T08:38:16.544Z,14.52
2023-08-29T08:40:42.556Z,14.62
2023-08-29T08:43:05.702Z,15.10
2023-08-29T08:45:26.216Z,15.09
2023-08-29T08:47:47.277Z,14.74
2023-08-29T08:50:12.757Z,14.67
2023-08-29T08:52:34.651Z,14.72
2023-08-29T08:54:55.280Z,15.48
2023-08-29T08:57:15.769Z,15.27
2023-08-29T08:59:36.620Z,14.71
2023-08-29T09:01:57.811Z,15.21
2023-08-29T09:04:18.809Z,15.05
2023-08-29T09:06:39.606Z,14.50
2023-08-29T09:09:21.084Z,14.63
2023-08-29T09:11:45.001Z,14.52
2023-08-29T09:14:06.206Z,14.32
2023-08-29T09:16:27.320Z,14.52
2023-08-29T09:18:51.078Z,14.31
2023-08-29T09:21:19.016Z,14.84
2023-08-29T09:23:40.734Z,14.46
2023-08-29T09:26:01.475Z,14.55
2023-08-29T09:28:29.895Z,14.98
2023-08-29T09:30:50.797Z,14.90
2023-08-29T09:33:11.671Z,14.62
2023-08-29T09:35:34.244Z,14.79
2023-08-29T09:37:56.232Z,15.09
2023-08-29T09:40:37.708Z,15.25
2023-08-29T09:43:00.688Z,14.94
2023-08-29T09:45:21.617Z,14.68
2023-08-29T09:47:42.290Z,14.68
2023-08-29T09:50:02.772Z,15.22
2023-08-29T09:52:25.307Z,15.36
2023-08-29T09:54:49.484Z,15.23
2023-08-29T09:57:11.514Z,15.84
2023-08-29T09:59:35.876Z,15.58
2023-08-29T10:01:56.735Z,15.45
2023-08-29T10:04:24.803Z,14.90
2023-08-29T10:06:48.640Z,15.60
2023-08-29T10:09:11.400Z,15.44
2023-08-29T10:11:44.415Z,15.37
2023-08-29T10:14:13.922Z,15.55
2023-08-29T10:16:35.738Z,15.21
2023-08-29T10:18:57.414Z,14.72
2023-08-29T10:21:19.153Z,14.63
2023-08-29T10:23:40.363Z,14.90
2023-08-29T10:26:02.251Z,15.32
2023-08-29T10:28:23.531Z,15.24
2023-08-29T10:30:48.548Z,15.23
2023-08-29T10:33:09.222Z,15.20
2023-08-29T10:35:33.218Z,15.56
2023-08-29T10:37:54.066Z,15.62
2023-08-29T10:40:15.348Z,15.90
2023-08-29T10:42:54.436Z,15.87
2023-08-29T10:45:15.347Z,15.49
2023-08-29T10:47:47.378Z,15.15
2023-08-29T10:50:17.764Z,15.40
2023-08-29T10:52:41.207Z,15.29
2023-08-29T10:55:09.661Z,15.89
2023-08-29T10:57:31.191Z,15.93
2023-08-29T10:59:53.244Z,16.18
2023-08-29T11:02:28.371Z,15.90
2023-08-29T11:04:56.392Z,16.48
2023-08-29T11:07:27.670Z,16.32
2023-08-29T11:09:48.555Z,16.04
2023-08-29T11:12:14.413Z,15.99
2023-08-29T11:14:56.725Z,15.67
2023-08-29T11:17:24.235Z,15.26
2023-08-29T11:19:47.416Z,15.49
2023-08-29T11:22:09.416Z,15.52
2023-08-29T11:24:31.095Z,15.82
2023-08-29T11:26:51.656Z,15.92
2023-08-29T11:29:12.359Z,15.56
2023-08-29T11:31:34.034Z,15.81
2023-08-29T11:33:54.821Z,15.63
2023-08-29T11:36:16.869Z,15.78
2023-08-29T11:38:38.722Z,15.42
2023-08-29T11:41:25.008Z,15.60
2023-08-29T11:44:24.369Z,15.64
2023-08-29T11:46:23.092Z,15.89
2023-08-29T11:48:43.473Z,15.86
2023-08-29T11:51:09.410Z,15.61
2023-08-29T11:53:33.732Z,15.42
2023-08-29T11:55:54.476Z,15.60
2023-08-29T11:58:15.317Z,16.24
2023-08-29T12:00:35.911Z,15.25
2023-08-29T12:02:57.726Z,16.39
2023-08-29T12:05:21.400Z,16.26
2023-08-29T12:07:43.181Z,15.88
2023-08-29T12:10:11.542Z,16.09
2023-08-29T12:12:35.372Z,16.04
2023-08-29T12:14:56.293Z,15.94
2023-08-29T12:17:17.619Z,15.91
2023-08-29T12:19:38.695Z,15.83
2023-08-29T12:21:59.485Z,15.97
2023-08-29T12:24:21.177Z,16.10
2023-08-29T12:26:42.033Z,15.71
2023-08-29T12:29:02.915Z,16.54
2023-08-29T12:31:23.478Z,15.58
2023-08-29T12:33:44.178Z,15.89
2023-08-29T12:36:05.788Z,16.51
2023-08-29T12:38:27.867Z,16.05
2023-08-29T12:40:48.663Z,15.99
2023-08-29T12:43:10.742Z,16.08
2023-08-29T12:45:33.272Z,16.44
2023-08-29T12:47:59.650Z,16.12
2023-08-29T12:50:20.513Z,16.57
2023-08-29T12:52:41.647Z,16.32
2023-08-29T12:55:02.443Z,16.62
2023-08-29T12:57:22.918Z,16.42
2023-08-29T12:59:43.493Z,16.38
2023-08-29T13:02:04.114Z,16.46
2023-08-29T13:04:24.900Z,16.19
2023-08-29T13:06:45.477Z,16.02
2023-08-29T13:09:06.716Z,16.29
2023-08-29T13:11:27.189Z,15.68
2023-08-29T13:13:47.953Z,15.74
2023-08-29T13:16:08.845Z,15.78
2023-08-29T13:18:29.380Z,15.44
2023-08-29T13:20:49.997Z,15.32
2023-08-29T13:23:11.264Z,15.50
2023-08-29T13:25:32.109Z,15.89
2023-08-29T13:27:52.907Z,15.56
2023-08-29T13:30:14.055Z,15.66
2023-08-29T13:32:37.870Z,15.52
2023-08-29T13:34:58.704Z,15.90
2023-08-29T13:37:19.299Z,15.87
2023-08-29T13:39:45.108Z,16.11
2023-08-29T13:42:06.011Z,16.02
2023-08-29T13:44:26.444Z,15.25
2023-08-29T13:46:47.109Z,14.90
2023-08-29T13:49:07.700Z,14.91
2023-08-29T13:51:28.509Z,15.60
2023-08-29T13:53:49.615Z,15.49
2023-08-29T13:56:10.138Z,15.62
2023-08-29T13:58:30.582Z,15.09
2023-08-29T14:00:51.632Z,15.42
2023-08-29T14:03:21.618Z,15.75
2023-08-29T14:05:49.885Z,15.88
2023-08-29T14:08:11.781Z,15.19
2023-08-29T14:10:33.566Z,15.10
2023-08-29T14:12:54.419Z,15.47
2023-08-29T14:15:15.173Z,15.37
2023-08-29T14:17:36.636Z,15.25
2023-08-29T14:19:58.414Z,15.63
2023-08-29T14:22:18.973Z,15.36
2023-08-29T14:24:39.563Z,15.98
2023-08-29T14:27:00.165Z,15.87
2023-08-29T14:29:20.834Z,15.53
2023-08-29T14:31:41.324Z,16.11
2023-08-29T14:34:01.869Z,16.01
2023-08-29T14:36:22.384Z,15.75
2023-08-29T14:38:43.058Z,16.02
2023-08-29T14:41:07.204Z,15.89
2023-08-29T14:43:28.061Z,15.54
2023-08-29T14:45:48.835Z,16.14
2023-08-29T14:48:10.169Z,15.76
2023-08-29T14:50:31.078Z,15.65
2023-08-29T14:52:51.730Z,16.22
2023-08-29T14:55:12.564Z,16.34
2023-08-29T14:57:34.915Z,16.33
2023-08-29T14:59:57.347Z,16.14
2023-08-29T15:02:18.301Z,16.18
2023-08-29T15:04:39.073Z,15.74
2023-08-29T15:07:01.520Z,15.43
2023-08-29T15:09:21.888Z,15.77
2023-08-29T15:11:42.718Z,15.27
2023-08-29T15:14:04.956Z,14.47
2023-08-29T15:16:25.574Z,15.30
2023-08-29T15:18:46.667Z,15.62
2023-08-29T15:21:07.989Z,15.37
2023-08-29T15:23:31.658Z,16.16
2023-08-29T15:25:55.079Z,16.59
2023-08-29T15:28:15.667Z,16.47
2023-08-29T15:30:37.401Z,15.73
2023-08-29T15:32:59.151Z,15.75
2023-08-29T15:35:20.217Z,15.92
2023-08-29T15:37:40.613Z,16.76
2023-08-29T15:40:01.318Z,16.55
2023-08-29T15:42:21.985Z,16.95
2023-08-29T15:44:42.693Z,16.68
2023-08-29T15:47:03.632Z,16.32
2023-08-29T15:49:24.439Z,16.37
2023-08-29T15:51:45.458Z,17.03
2023-08-29T15:54:06.356Z,16.96
2023-08-29T15:56:26.983Z,16.96
2023-08-29T15:58:47.448Z,17.11
2023-08-29T16:01:08.744Z,17.46
2023-08-29T16:03:29.385Z,17.09
2023-08-29T16:05:50.967Z,17.07
2023-08-29T16:08:11.730Z,17.37
2023-08-29T16:10:32.196Z,17.68
2023-08-29T16:12:52.831Z,17.68
2023-08-29T16:15:14.968Z,17.71
2023-08-29T16:17:37.840Z,17.74
2023-08-29T16:19:58.537Z,17.27
2023-08-29T16:22:19.222Z,17.27
2023-08-29T16:24:39.908Z,17.82
2023-08-29T16:27:00.393Z,17.58
2023-08-29T16:29:21.155Z,17.53
2023-08-29T16:31:42.140Z,17.83
2023-08-29T16:34:03.570Z,17.88
2023-08-29T16:36:24.467Z,17.48
2023-08-29T16:38:46.627Z,17.82
2023-08-29T16:41:07.458Z,17.83
2023-08-29T16:43:28.351Z,17.91
2023-08-29T16:45:48.971Z,17.60
2023-08-29T16:48:09.876Z,17.20
2023-08-29T16:50:32.189Z,17.23
2023-08-29T16:52:52.661Z,16.69
2023-08-29T16:55:13.341Z,16.85
2023-08-29T16:57:34.341Z,16.66
2023-08-29T16:59:57.590Z,17.32
2023-08-29T17:02:18.266Z,17.53
2023-08-29T17:04:39.097Z,17.71
2023-08-29T17:06:59.971Z,17.99
2023-08-29T17:09:20.987Z,18.22
2023-08-29T17:11:41.793Z,18.14
2023-08-29T17:14:03.453Z,18.10
2023-08-29T17:16:25.439Z,17.85
2023-08-29T17:18:46.393Z,17.91
2023-08-29T17:21:06.800Z,17.65
2023-08-29T17:23:27.415Z,17.97
2023-08-29T17:25:48.220Z,18.16
2023-08-29T17:28:15.096Z,18.08
2023-08-29T17:30:35.785Z,18.03
2023-08-29T17:32:56.493Z,17.93
2023-08-29T17:35:17.286Z,17.81
2023-08-29T17:37:42.614Z,17.69
2023-08-29T17:40:03.379Z,17.82
2023-08-29T17:42:24.185Z,17.73
2023-08-29T17:44:46.591Z,17.80
2023-08-29T17:47:07.266Z,17.89
2023-08-29T17:49:27.774Z,17.80
2023-08-29T17:51:49.129Z,18.07
2023-08-29T17:54:10.000Z,18.24
2023-08-29T17:56:31.583Z,18.33
2023-08-29T17:58:52.058Z,18.31
2023-08-29T18:01:12.744Z,18.09
2023-08-29T18:03:33.405Z,18.25
2023-08-29T18:05:55.728Z,17.77
2023-08-29T18:08:18.587Z,18.02
2023-08-29T18:10:39.302Z,17.97
2023-08-29T18:12:59.996Z,17.47
2023-08-29T18:15:20.610Z,17.61
2023-08-29T18:17:41.466Z,17.78
2023-08-29T18:20:02.150Z,17.66
2023-08-29T18:22:23.032Z,18.09
2023-08-29T18:24:44.057Z,18.28
2023-08-29T18:27:05.040Z,18.26
2023-08-29T18:29:25.663Z,18.23
2023-08-29T18:31:46.330Z,17.72
2023-08-29T18:34:06.894Z,17.74
2023-08-29T18:36:27.491Z,17.76
2023-08-29T18:38:48.158Z,17.92
2023-08-29T18:41:09.326Z,17.84
2023-08-29T18:43:30.147Z,17.76
2023-08-29T18:45:50.743Z,17.81
2023-08-29T18:48:11.564Z,17.78
2023-08-29T18:50:32.935Z,17.76
2023-08-29T18:52:54.816Z,17.76
2023-08-29T18:55:15.608Z,17.81
2023-08-29T18:57:36.928Z,17.42
2023-08-29T19:00:00.469Z,17.49
2023-08-29T19:02:20.953Z,17.31
2023-08-29T19:04:43.927Z,17.69
2023-08-29T19:07:04.787Z,17.58
2023-08-29T19:09:25.196Z,17.43
2023-08-29T19:11:45.975Z,17.78
2023-08-29T19:14:06.485Z,17.48
2023-08-29T19:16:26.944Z,17.34
2023-08-29T19:18:47.421Z,17.72
2023-08-29T19:21:07.724Z,17.75
2023-08-29T19:23:29.280Z,17.53
2023-08-29T19:25:50.021Z,17.75
2023-08-29T19:28:10.700Z,18.01
2023-08-29T19:30:31.574Z,17.99
2023-08-29T19:32:53.807Z,17.91
2023-08-29T19:35:15.281Z,17.85
2023-08-29T19:37:36.029Z,17.57
2023-08-29T19:39:56.856Z,17.68
2023-08-29T19:42:17.429Z,18.01
2023-08-29T19:44:38.366Z,18.33
2023-08-29T19:47:02.702Z,18.04
2023-08-29T19:49:25.920Z,17.34
2023-08-29T19:51:46.647Z,17.58
2023-08-29T19:54:07.456Z,17.79
2023-08-29T19:56:27.949Z,18.03
2023-08-29T19:58:48.535Z,17.91
2023-08-29T20:01:09.498Z,17.93
2023-08-29T20:03:30.280Z,17.93
2023-08-29T20:05:50.783Z,18.24
2023-08-29T20:08:14.993Z,17.70
2023-08-29T20:10:36.668Z,18.09
2023-08-29T20:12:57.073Z,18.15
2023-08-29T20:15:17.997Z,18.36
2023-08-29T20:17:38.496Z,17.63
2023-08-29T20:19:59.063Z,17.58
2023-08-29T20:22:19.739Z,17.82
2023-08-29T20:24:41.109Z,18.08
2023-08-29T20:27:03.030Z,18.13
2023-08-29T20:29:23.491Z,18.01
2023-08-29T20:31:44.808Z,17.73
2023-08-29T20:34:05.441Z,18.05
2023-08-29T20:36:26.414Z,18.08
2023-08-29T20:38:47.302Z,17.51
2023-08-29T20:41:08.037Z,17.44
2023-08-29T20:43:29.684Z,17.51
2023-08-29T20:45:50.539Z,17.43
2023-08-29T20:48:11.651Z,17.81
2023-08-29T20:50:32.452Z,18.11
2023-08-29T20:52:53.198Z,17.90
2023-08-29T20:55:15.019Z,18.06
2023-08-29T20:57:35.779Z,18.21
2023-08-29T20:59:56.746Z,18.30
2023-08-29T21:02:17.669Z,18.30
2023-08-29T21:04:38.226Z,18.27
2023-08-29T21:06:58.757Z,18.19
2023-08-29T21:09:20.828Z,18.25
2023-08-29T21:11:41.992Z,17.92
2023-08-29T21:14:02.583Z,18.01
2023-08-29T21:16:23.132Z,18.08
2023-08-29T21:18:43.830Z,18.16
2023-08-29T21:21:04.327Z,18.13
2023-08-29T21:23:25.191Z,18.17
2023-08-29T21:25:48.249Z,17.92
2023-08-29T21:28:09.337Z,17.71
2023-08-29T21:30:30.544Z,17.73
2023-08-29T21:32:51.112Z,17.85
2023-08-29T21:35:11.755Z,17.73
2023-08-29T21:37:32.385Z,17.55
2023-08-29T21:39:53.319Z,17.79
2023-08-29T21:42:14.072Z,17.86
2023-08-29T21:44:34.616Z,17.90
2023-08-29T21:46:55.180Z,17.60
2023-08-29T21:49:15.896Z,17.54
2023-08-29T21:51:36.488Z,17.68
2023-08-29T21:53:57.330Z,17.43
2023-08-29T21:56:19.982Z,17.54
2023-08-29T21:58:40.450Z,17.75
2023-08-29T22:01:00.896Z,17.84
2023-08-29T22:03:25.312Z,17.87
2023-08-29T22:05:47.324Z,17.78
2023-08-29T22:08:08.156Z,17.76
2023-08-29T22:10:28.832Z,17.74
2023-08-29T22:12:50.582Z,17.92
2023-08-29T22:15:11.884Z,18.07
2023-08-29T22:17:32.581Z,18.05
2023-08-29T22:19:53.357Z,18.11
2023-08-29T22:22:13.950Z,18.00
2023-08-29T22:24:34.810Z,17.88
2023-08-29T22:26:56.175Z,17.84
2023-08-29T22:29:16.622Z,17.87
2023-08-29T22:31:37.098Z,17.86
2023-08-29T22:33:57.663Z,17.89
2023-08-29T22:36:18.191Z,17.87
2023-08-29T22:38:38.810Z,17.86
2023-08-29T22:41:15.503Z,17.75
2023-08-29T22:43:39.241Z,17.74
2023-08-29T22:46:00.162Z,17.77
2023-08-29T22:48:20.923Z,17.82
2023-08-29T22:50:42.193Z,17.89
2023-08-29T22:53:03.126Z,17.79
2023-08-29T22:55:25.846Z,17.85
2023-08-29T22:57:47.204Z,17.96
2023-08-29T23:00:10.890Z,17.95
2023-08-29T23:02:31.593Z,17.73
2023-08-29T23:04:52.033Z,17.66
2023-08-29T23:07:12.452Z,17.86
2023-08-29T23:09:33.192Z,17.83
2023-08-29T23:11:53.997Z,17.87
2023-08-29T23:14:23.141Z,17.64
2023-08-29T23:16:43.749Z,17.69
2023-08-29T23:19:04.362Z,17.94
2023-08-29T23:21:25.464Z,17.81
2023-08-29T23:23:46.300Z,17.58
2023-08-29T23:26:07.178Z,17.72
2023-08-29T23:28:28.153Z,17.73
2023-08-29T23:30:55.962Z,17.90
2023-08-29T23:33:18.002Z,17.79
2023-08-29T23:35:38.667Z,17.73
2023-08-29T23:37:59.054Z,17.72
2023-08-29T23:40:20.348Z,17.41
2023-08-29T23:42:41.070Z,17.65
2023-08-29T23:45:01.771Z,17.58
2023-08-29T23:47:22.875Z,17.58
2023-08-29T23:49:43.441Z,17.59
2023-08-29T23:52:04.508Z,17.59
2023-08-29T23:54:25.389Z,17.61
2023-08-29T23:56:46.109Z,17.72
2023-08-29T23:59:06.609Z,17.69
